createdAt,value
2022-12-22T00:00:35.840Z,0.00
2022-12-22T00:01:35.948Z,0.00
2022-12-22T00:02:36.107Z,0.00
2022-12-22T00:03:35.999Z,0.00
2022-12-22T00:04:35.702Z,0.00
2022-12-22T00:05:35.888Z,0.00
2022-12-22T00:06:35.663Z,0.00
2022-12-22T00:07:35.755Z,0.00
2022-12-22T00:08:35.657Z,0.00
2022-12-22T00:09:35.785Z,0.00
2022-12-22T00:10:35.649Z,0.00
2022-12-22T00:11:35.716Z,0.00
2022-12-22T00:12:35.584Z,0.00
2022-12-22T00:13:35.607Z,0.00
2022-12-22T00:14:35.609Z,0.00
2022-12-22T00:15:35.668Z,0.00
2022-12-22T00:16:35.675Z,0.00
2022-12-22T00:17:35.623Z,0.00
2022-12-22T00:18:35.529Z,0.00
2022-12-22T00:19:35.672Z,0.00
2022-12-22T00:20:35.488Z,0.00
2022-12-22T00:21:35.572Z,0.00
2022-12-22T00:22:35.645Z,0.00
2022-12-22T00:23:35.423Z,0.00
2022-12-22T00:24:35.579Z,0.00
2022-12-22T00:25:35.403Z,0.00
2022-12-22T00:26:35.631Z,0.00
2022-12-22T00:27:35.490Z,0.00
2022-12-22T00:28:35.423Z,0.00
2022-12-22T00:29:35.409Z,0.00
2022-12-22T00:30:35.391Z,0.00
2022-12-22T00:31:35.460Z,0.00
2022-12-22T00:32:35.362Z,0.00
2022-12-22T00:33:35.425Z,0.00
2022-12-22T00:34:35.312Z,0.00
2022-12-22T00:35:35.457Z,0.00
2022-12-22T00:36:35.289Z,0.00
2022-12-22T00:37:35.392Z,0.00
2022-12-22T00:38:35.259Z,0.00
2022-12-22T00:39:35.266Z,0.00
2022-12-22T00:40:35.222Z,0.00
2022-12-22T00:41:35.385Z,0.00
2022-12-22T00:42:35.221Z,0.00
2022-12-22T00:43:35.263Z,0.00
2022-12-22T00:44:35.188Z,0.00
2022-12-22T00:45:35.347Z,0.00
2022-12-22T00:46:35.170Z,0.00
2022-12-22T00:47:35.338Z,0.00
2022-12-22T00:48:35.396Z,0.00
2022-12-22T00:49:35.094Z,0.00
2022-12-22T00:50:35.161Z,0.00
2022-12-22T00:51:35.084Z,0.00
2022-12-22T00:52:35.324Z,0.00
2022-12-22T00:53:35.277Z,0.00
2022-12-22T00:54:35.090Z,0.00
2022-12-22T00:55:35.151Z,0.00
2022-12-22T00:56:35.043Z,0.00
2022-12-22T00:57:35.125Z,0.00
2022-12-22T00:58:35.024Z,0.00
2022-12-22T00:59:35.132Z,0.00
2022-12-22T01:00:35.026Z,0.00
2022-12-22T01:01:35.289Z,0.00
2022-12-22T01:02:35.183Z,0.00
2022-12-22T01:03:35.120Z,0.00
2022-12-22T01:04:34.943Z,0.00
2022-12-22T01:05:35.048Z,0.00
2022-12-22T01:06:34.925Z,0.00
2022-12-22T01:07:34.959Z,0.00
2022-12-22T01:08:34.865Z,0.00
2022-12-22T01:09:34.966Z,0.00
2022-12-22T01:10:34.847Z,0.00
2022-12-22T01:11:34.922Z,0.00
2022-12-22T01:12:34.826Z,0.00
2022-12-22T01:13:35.001Z,0.00
2022-12-22T01:14:34.810Z,0.00
2022-12-22T01:15:34.840Z,0.00
2022-12-22T01:16:34.827Z,0.00
2022-12-22T01:17:34.843Z,0.00
2022-12-22T01:18:34.767Z,0.00
2022-12-22T01:19:34.831Z,0.00
2022-12-22T01:20:34.759Z,0.00
2022-12-22T01:21:34.832Z,0.00
2022-12-22T01:22:34.695Z,0.00
2022-12-22T01:23:34.903Z,0.00
2022-12-22T01:24:34.728Z,0.00
2022-12-22T01:25:34.623Z,0.00
2022-12-22T01:26:34.810Z,0.00
2022-12-22T01:27:34.595Z,0.00
2022-12-22T01:28:34.811Z,0.00
2022-12-22T01:29:34.597Z,0.00
2022-12-22T01:30:34.747Z,0.00
2022-12-22T01:31:34.553Z,0.00
2022-12-22T01:32:34.628Z,0.00
2022-12-22T01:33:34.560Z,0.00
2022-12-22T01:34:34.643Z,0.00
2022-12-22T01:35:34.502Z,0.00
2022-12-22T01:36:34.653Z,0.00
2022-12-22T01:37:34.529Z,0.00
2022-12-22T01:38:34.672Z,0.00
2022-12-22T01:39:34.453Z,0.00
2022-12-22T01:40:34.537Z,0.00
2022-12-22T01:41:34.404Z,0.00
2022-12-22T01:42:34.490Z,0.00
2022-12-22T01:43:34.414Z,0.00
2022-12-22T01:44:34.506Z,0.00
2022-12-22T01:45:34.546Z,0.00
2022-12-22T01:46:34.456Z,0.00
2022-12-22T01:47:34.507Z,0.00
2022-12-22T01:48:34.352Z,0.00
2022-12-22T01:49:34.473Z,0.00
2022-12-22T01:50:34.448Z,0.00
2022-12-22T01:51:34.306Z,0.00
2022-12-22T01:52:34.374Z,0.00
2022-12-22T01:53:34.269Z,0.00
2022-12-22T01:54:34.442Z,0.00
2022-12-22T01:55:34.254Z,0.00
2022-12-22T01:56:34.333Z,0.00
2022-12-22T01:57:34.205Z,0.00
2022-12-22T01:58:34.314Z,0.00
2022-12-22T01:59:34.239Z,0.00
2022-12-22T02:00:34.268Z,0.00
2022-12-22T02:01:34.253Z,0.00
2022-12-22T02:02:34.445Z,0.00
2022-12-22T02:03:34.213Z,0.00
2022-12-22T02:04:34.244Z,0.00
2022-12-22T02:05:34.140Z,0.00
2022-12-22T02:06:34.193Z,0.00
2022-12-22T02:07:34.123Z,0.00
2022-12-22T02:08:34.169Z,0.00
2022-12-22T02:09:34.063Z,0.00
2022-12-22T02:10:34.174Z,0.00
2022-12-22T02:11:34.023Z,0.00
2022-12-22T02:12:34.242Z,0.00
2022-12-22T02:13:34.017Z,0.00
2022-12-22T02:14:34.223Z,0.00
2022-12-22T02:15:33.983Z,0.00
2022-12-22T02:16:34.200Z,0.00
2022-12-22T02:17:33.981Z,0.00
2022-12-22T02:18:34.043Z,0.00
2022-12-22T02:19:33.952Z,0.00
2022-12-22T02:20:34.060Z,0.00
2022-12-22T02:21:33.902Z,0.00
2022-12-22T02:22:33.957Z,0.00
2022-12-22T02:23:33.865Z,0.00
2022-12-22T02:24:33.973Z,0.00
2022-12-22T02:25:33.887Z,0.00
2022-12-22T02:26:33.982Z,0.00
2022-12-22T02:27:33.822Z,0.00
2022-12-22T02:28:34.001Z,0.00
2022-12-22T02:29:33.822Z,0.00
2022-12-22T02:30:33.903Z,0.00
2022-12-22T02:31:33.941Z,0.00
2022-12-22T02:32:33.967Z,0.00
2022-12-22T02:33:33.775Z,0.00
2022-12-22T02:34:33.832Z,0.00
2022-12-22T02:35:33.768Z,0.00
2022-12-22T02:36:33.849Z,0.00
2022-12-22T02:37:33.733Z,0.00
2022-12-22T02:38:33.752Z,0.00
2022-12-22T02:39:40.594Z,0.00
2022-12-22T02:40:40.852Z,0.00
2022-12-22T02:41:33.692Z,0.00
2022-12-22T02:42:33.788Z,0.00
2022-12-22T02:43:33.616Z,0.00
2022-12-22T02:44:33.690Z,0.00
2022-12-22T02:45:33.586Z,0.00
2022-12-22T02:46:33.773Z,0.00
2022-12-22T02:47:33.743Z,0.00
2022-12-22T02:48:33.576Z,0.00
2022-12-22T02:49:33.636Z,0.00
2022-12-22T02:50:33.546Z,0.00
2022-12-22T02:51:33.630Z,0.00
2022-12-22T02:52:33.543Z,0.00
2022-12-22T02:53:33.579Z,0.00
2022-12-22T02:54:33.510Z,0.00
2022-12-22T02:55:33.552Z,0.00
2022-12-22T02:56:33.477Z,0.00
2022-12-22T02:57:33.631Z,0.00
2022-12-22T02:58:33.443Z,0.00
2022-12-22T02:59:33.580Z,0.00
2022-12-22T03:00:33.421Z,0.00
2022-12-22T03:01:33.784Z,0.00
2022-12-22T03:02:33.779Z,0.00
2022-12-22T03:03:33.666Z,0.00
2022-12-22T03:04:33.391Z,0.00
2022-12-22T03:05:33.426Z,0.00
2022-12-22T03:06:33.354Z,0.00
2022-12-22T03:07:33.434Z,0.00
2022-12-22T03:08:33.470Z,0.00
2022-12-22T03:09:33.310Z,0.00
2022-12-22T03:10:33.483Z,0.00
2022-12-22T03:11:33.247Z,0.00
2022-12-22T03:12:33.436Z,0.00
2022-12-22T03:13:33.371Z,0.00
2022-12-22T03:14:33.268Z,0.00
2022-12-22T03:15:33.425Z,0.00
2022-12-22T03:16:33.246Z,0.00
2022-12-22T03:17:33.296Z,0.00
2022-12-22T03:18:33.185Z,0.00
2022-12-22T03:19:33.305Z,0.00
2022-12-22T03:20:33.186Z,0.00
2022-12-22T03:21:33.369Z,0.00
2022-12-22T03:22:33.123Z,0.00
2022-12-22T03:23:33.146Z,0.00
2022-12-22T03:24:33.102Z,0.00
2022-12-22T03:25:33.139Z,0.00
2022-12-22T03:26:33.068Z,0.00
2022-12-22T03:27:33.189Z,0.00
2022-12-22T03:28:33.025Z,0.00
2022-12-22T03:29:33.123Z,0.00
2022-12-22T03:30:33.003Z,0.00
2022-12-22T03:31:33.160Z,0.00
2022-12-22T03:32:32.988Z,0.00
2022-12-22T03:33:33.165Z,0.00
2022-12-22T03:34:33.173Z,0.00
2022-12-22T03:35:32.962Z,0.00
2022-12-22T03:36:33.020Z,0.00
2022-12-22T03:37:33.014Z,0.00
2022-12-22T03:38:33.027Z,0.00
2022-12-22T03:39:33.022Z,0.00
2022-12-22T03:40:32.902Z,0.00
2022-12-22T03:41:32.988Z,0.00
2022-12-22T03:42:32.886Z,0.00
2022-12-22T03:43:32.982Z,0.00
2022-12-22T03:44:32.849Z,0.00
2022-12-22T03:45:33.030Z,0.00
2022-12-22T03:46:33.005Z,0.00
2022-12-22T03:47:33.021Z,0.00
2022-12-22T03:48:32.781Z,0.00
2022-12-22T03:49:32.886Z,0.00
2022-12-22T03:50:32.775Z,0.00
2022-12-22T03:51:32.867Z,0.00
2022-12-22T03:52:32.719Z,0.00
2022-12-22T03:53:32.922Z,0.00
2022-12-22T03:54:32.690Z,0.00
2022-12-22T03:55:32.755Z,0.00
2022-12-22T03:56:32.671Z,0.00
2022-12-22T03:57:32.821Z,0.00
2022-12-22T03:58:32.653Z,0.00
2022-12-22T03:59:32.845Z,0.00
2022-12-22T04:00:32.695Z,0.00
2022-12-22T04:01:32.857Z,0.00
2022-12-22T04:02:32.713Z,0.00
2022-12-22T04:03:32.913Z,0.00
2022-12-22T04:04:32.601Z,0.00
2022-12-22T04:05:32.667Z,0.00
2022-12-22T04:06:32.539Z,0.00
2022-12-22T04:07:32.649Z,0.00
2022-12-22T04:08:32.511Z,0.00
2022-12-22T04:09:32.657Z,0.00
2022-12-22T04:10:32.628Z,0.00
2022-12-22T04:11:32.509Z,0.00
2022-12-22T04:12:32.562Z,0.00
2022-12-22T04:13:32.474Z,0.00
2022-12-22T04:14:34.728Z,0.00
2022-12-22T04:15:32.538Z,0.00
2022-12-22T04:16:32.582Z,0.00
2022-12-22T04:17:32.424Z,0.00
2022-12-22T04:18:32.663Z,0.00
2022-12-22T04:19:32.408Z,0.00
2022-12-22T04:20:32.426Z,0.00
2022-12-22T04:21:32.421Z,0.00
2022-12-22T04:22:32.424Z,0.00
2022-12-22T04:23:32.343Z,0.00
2022-12-22T04:24:32.455Z,0.00
2022-12-22T04:25:32.335Z,0.00
2022-12-22T04:26:32.402Z,0.00
2022-12-22T04:27:32.297Z,0.00
2022-12-22T04:28:32.389Z,0.00
2022-12-22T04:29:32.270Z,0.00
2022-12-22T04:30:32.377Z,0.00
2022-12-22T04:31:32.518Z,0.00
2022-12-22T04:32:32.307Z,0.00
2022-12-22T04:33:32.361Z,0.00
2022-12-22T04:34:32.185Z,0.00
2022-12-22T04:35:32.336Z,0.00
2022-12-22T04:36:32.321Z,0.00
2022-12-22T04:37:32.190Z,0.00
2022-12-22T04:38:32.278Z,0.00
2022-12-22T04:39:32.169Z,0.00
2022-12-22T04:40:32.136Z,0.00
2022-12-22T04:41:32.134Z,0.00
2022-12-22T04:42:32.265Z,0.00
2022-12-22T04:43:32.091Z,0.00
2022-12-22T04:44:32.209Z,0.00
2022-12-22T04:45:32.237Z,0.00
2022-12-22T04:46:32.303Z,0.00
2022-12-22T04:47:32.040Z,0.00
2022-12-22T04:48:32.103Z,0.00
2022-12-22T04:49:32.044Z,0.00
2022-12-22T04:50:32.211Z,0.00
2022-12-22T04:51:31.995Z,0.00
2022-12-22T04:52:32.027Z,0.00
2022-12-22T04:53:31.967Z,0.00
2022-12-22T04:54:32.067Z,0.00
2022-12-22T04:55:31.921Z,0.00
2022-12-22T04:56:32.057Z,0.00
2022-12-22T04:57:36.840Z,0.00
2022-12-22T04:58:31.883Z,0.00
2022-12-22T04:59:32.049Z,0.00
2022-12-22T05:00:31.841Z,0.00
2022-12-22T05:01:32.243Z,0.00
2022-12-22T05:02:32.050Z,0.00
2022-12-22T05:03:31.940Z,0.00
2022-12-22T05:04:31.909Z,0.00
2022-12-22T05:05:31.835Z,0.00
2022-12-22T05:06:31.964Z,0.00
2022-12-22T05:07:31.902Z,0.00
2022-12-22T05:08:31.737Z,0.00
2022-12-22T05:09:31.949Z,0.00
2022-12-22T05:10:31.749Z,0.00
2022-12-22T05:11:31.993Z,0.00
2022-12-22T05:12:31.702Z,0.00
2022-12-22T05:13:31.787Z,0.00
2022-12-22T05:14:31.672Z,0.00
2022-12-22T05:15:31.787Z,0.00
2022-12-22T05:16:31.778Z,0.00
2022-12-22T05:17:31.711Z,0.00
2022-12-22T05:18:31.618Z,0.00
2022-12-22T05:19:31.756Z,0.00
2022-12-22T05:20:31.607Z,0.00
2022-12-22T05:21:31.734Z,0.00
2022-12-22T05:22:31.597Z,0.00
2022-12-22T05:23:31.750Z,0.00
2022-12-22T05:24:31.543Z,0.00
2022-12-22T05:25:35.355Z,0.00
2022-12-22T05:26:31.582Z,0.00
2022-12-22T05:27:31.574Z,0.00
2022-12-22T05:28:31.610Z,0.00
2022-12-22T05:29:31.615Z,0.00
2022-12-22T05:30:31.679Z,0.00
2022-12-22T05:31:31.593Z,0.00
2022-12-22T05:32:31.604Z,0.00
2022-12-22T05:33:31.666Z,0.00
2022-12-22T05:34:31.505Z,0.00
2022-12-22T05:35:31.538Z,0.00
2022-12-22T05:36:31.390Z,0.00
2022-12-22T05:37:31.604Z,0.00
2022-12-22T05:38:31.683Z,0.00
2022-12-22T05:39:31.608Z,0.00
2022-12-22T05:40:31.354Z,0.00
2022-12-22T05:41:31.473Z,0.00
2022-12-22T05:42:31.325Z,0.00
2022-12-22T05:43:31.399Z,0.00
2022-12-22T05:44:31.326Z,0.00
2022-12-22T05:45:31.492Z,0.00
2022-12-22T05:46:31.352Z,0.00
2022-12-22T05:47:31.426Z,0.00
2022-12-22T05:48:37.542Z,0.00
2022-12-22T05:49:31.284Z,0.00
2022-12-22T05:50:31.357Z,0.00
2022-12-22T05:51:31.216Z,0.00
2022-12-22T05:52:31.312Z,0.00
2022-12-22T05:53:31.176Z,0.00
2022-12-22T05:54:31.346Z,0.00
2022-12-22T05:55:31.214Z,0.00
2022-12-22T05:56:31.352Z,0.00
2022-12-22T05:57:31.131Z,0.00
2022-12-22T05:58:31.210Z,0.00
2022-12-22T05:59:31.149Z,0.00
2022-12-22T06:00:31.247Z,0.00
2022-12-22T06:01:31.155Z,0.00
2022-12-22T06:02:31.446Z,0.00
2022-12-22T06:03:31.210Z,0.00
2022-12-22T06:04:31.239Z,0.00
2022-12-22T06:05:31.067Z,0.00
2022-12-22T06:06:31.225Z,0.00
2022-12-22T06:07:31.050Z,0.00
2022-12-22T06:08:31.043Z,0.00
2022-12-22T06:09:30.991Z,0.00
2022-12-22T06:10:31.043Z,0.00
2022-12-22T06:11:31.001Z,0.00
2022-12-22T06:12:31.066Z,0.00
2022-12-22T06:13:30.932Z,0.00
2022-12-22T06:14:31.067Z,0.00
2022-12-22T06:15:30.900Z,0.00
2022-12-22T06:16:31.288Z,0.00
2022-12-22T06:17:30.870Z,0.00
2022-12-22T06:18:30.883Z,0.00
2022-12-22T06:19:30.863Z,0.00
2022-12-22T06:20:30.914Z,0.00
2022-12-22T06:21:30.888Z,0.00
2022-12-22T06:22:30.870Z,0.00
2022-12-22T06:23:30.817Z,0.00
2022-12-22T06:24:30.844Z,0.00
2022-12-22T06:25:30.861Z,0.00
2022-12-22T06:26:30.741Z,0.00
2022-12-22T06:27:30.872Z,0.00
2022-12-22T06:28:30.749Z,0.00
2022-12-22T06:29:30.783Z,0.00
2022-12-22T06:30:33.617Z,0.00
2022-12-22T06:31:30.770Z,0.00
2022-12-22T06:32:30.793Z,0.00
2022-12-22T06:33:30.705Z,0.00
2022-12-22T06:34:30.714Z,0.00
2022-12-22T06:35:30.655Z,0.00
2022-12-22T06:36:30.804Z,0.00
2022-12-22T06:37:30.620Z,0.00
2022-12-22T06:38:30.680Z,0.00
2022-12-22T06:39:30.599Z,0.00
2022-12-22T06:40:30.639Z,0.00
2022-12-22T06:41:30.556Z,0.00
2022-12-22T06:42:30.644Z,0.00
2022-12-22T06:43:30.543Z,0.00
2022-12-22T06:44:30.709Z,0.00
2022-12-22T06:45:30.540Z,0.00
2022-12-22T06:46:30.727Z,0.00
2022-12-22T06:47:30.484Z,0.00
2022-12-22T06:48:30.609Z,0.00
2022-12-22T06:49:30.494Z,0.00
2022-12-22T06:50:30.727Z,0.00
2022-12-22T06:51:30.467Z,0.00
2022-12-22T06:52:30.554Z,0.00
2022-12-22T06:53:30.427Z,0.00
2022-12-22T06:54:30.533Z,0.00
2022-12-22T06:55:30.425Z,0.00
2022-12-22T06:56:30.460Z,0.00
2022-12-22T06:57:30.375Z,0.00
2022-12-22T06:58:30.473Z,0.00
2022-12-22T06:59:30.355Z,0.00
2022-12-22T07:00:30.388Z,0.00
2022-12-22T07:01:30.539Z,0.00
2022-12-22T07:02:30.741Z,0.00
2022-12-22T07:03:30.415Z,0.00
2022-12-22T07:04:30.400Z,0.00
2022-12-22T07:05:30.323Z,0.00
2022-12-22T07:06:30.303Z,0.00
2022-12-22T07:07:30.394Z,0.00
2022-12-22T07:08:30.206Z,0.00
2022-12-22T07:09:30.357Z,0.00
2022-12-22T07:10:30.181Z,0.00
2022-12-22T07:11:30.251Z,0.00
2022-12-22T07:12:30.211Z,0.00
2022-12-22T07:13:30.350Z,0.00
2022-12-22T07:14:36.330Z,0.00
2022-12-22T07:15:30.171Z,0.00
2022-12-22T07:16:30.155Z,0.00
2022-12-22T07:17:30.217Z,0.00
2022-12-22T07:18:30.112Z,0.00
2022-12-22T07:19:30.299Z,0.00
2022-12-22T07:20:30.084Z,0.00
2022-12-22T07:21:30.097Z,0.00
2022-12-22T07:22:31.080Z,0.00
2022-12-22T07:23:30.043Z,0.00
2022-12-22T07:24:30.746Z,5.62
2022-12-22T07:25:30.038Z,5.62
2022-12-22T07:26:30.145Z,0.00
2022-12-22T07:27:30.009Z,0.00
2022-12-22T07:28:30.286Z,0.00
2022-12-22T07:29:29.959Z,5.62
2022-12-22T07:30:30.012Z,5.62
2022-12-22T07:31:30.013Z,5.62
2022-12-22T07:32:29.984Z,5.62
2022-12-22T07:33:29.921Z,5.62
2022-12-22T07:34:29.997Z,5.62
2022-12-22T07:35:29.908Z,5.62
2022-12-22T07:36:30.009Z,11.25
2022-12-22T07:37:29.846Z,11.25
2022-12-22T07:38:30.080Z,11.25
2022-12-22T07:39:29.853Z,16.88
2022-12-22T07:40:30.184Z,16.88
2022-12-22T07:41:29.823Z,16.88
2022-12-22T07:42:29.851Z,16.88
2022-12-22T07:43:29.808Z,16.88
2022-12-22T07:44:29.871Z,11.25
2022-12-22T07:45:29.726Z,11.25
2022-12-22T07:46:29.844Z,11.25
2022-12-22T07:47:35.089Z,5.62
2022-12-22T07:48:29.727Z,5.62
2022-12-22T07:49:29.849Z,5.62
2022-12-22T07:50:29.725Z,5.62
2022-12-22T07:51:29.705Z,5.62
2022-12-22T07:52:29.659Z,0.00
2022-12-22T07:53:29.813Z,0.00
2022-12-22T07:54:29.680Z,0.00
2022-12-22T07:55:29.830Z,0.00
2022-12-22T07:56:29.612Z,0.00
2022-12-22T07:57:29.689Z,0.00
2022-12-22T07:58:29.736Z,0.00
2022-12-22T07:59:29.657Z,0.00
2022-12-22T08:00:29.591Z,0.00
2022-12-22T08:01:29.761Z,0.00
2022-12-22T08:02:33.860Z,0.00
2022-12-22T08:03:29.586Z,0.00
2022-12-22T08:04:29.710Z,0.00
2022-12-22T08:05:29.490Z,0.00
2022-12-22T08:06:29.535Z,0.00
2022-12-22T08:07:29.446Z,0.00
2022-12-22T08:08:29.526Z,0.00
2022-12-22T08:09:29.495Z,0.00
2022-12-22T08:10:29.443Z,0.00
2022-12-22T08:11:29.529Z,0.00
2022-12-22T08:12:29.429Z,0.00
2022-12-22T08:13:29.508Z,0.00
2022-12-22T08:14:29.359Z,5.62
2022-12-22T08:15:29.633Z,5.62
2022-12-22T08:16:29.474Z,5.62
2022-12-22T08:17:29.390Z,5.62
2022-12-22T08:18:29.446Z,5.62
2022-12-22T08:19:29.449Z,5.62
2022-12-22T08:20:29.299Z,5.62
2022-12-22T08:21:29.435Z,11.25
2022-12-22T08:22:29.314Z,11.25
2022-12-22T08:23:29.396Z,22.50
2022-12-22T08:24:29.593Z,33.75
2022-12-22T08:25:29.425Z,45.00
2022-12-22T08:26:29.199Z,50.62
2022-12-22T08:27:29.763Z,61.88
2022-12-22T08:28:29.405Z,78.75
2022-12-22T08:29:29.429Z,90.00
2022-12-22T08:30:30.545Z,90.00
2022-12-22T08:31:29.481Z,84.38
2022-12-22T08:32:29.395Z,78.75
2022-12-22T08:33:29.095Z,84.38
2022-12-22T08:34:29.339Z,78.75
2022-12-22T08:35:29.073Z,78.75
2022-12-22T08:36:29.203Z,84.38
2022-12-22T08:37:29.074Z,67.50
2022-12-22T08:38:29.132Z,73.12
2022-12-22T08:39:29.113Z,73.12
2022-12-22T08:40:29.157Z,90.00
2022-12-22T08:41:29.010Z,95.62
2022-12-22T08:42:29.174Z,123.75
2022-12-22T08:43:28.966Z,112.50
2022-12-22T08:44:29.129Z,135.00
2022-12-22T08:45:29.025Z,101.25
2022-12-22T08:46:29.100Z,101.25
2022-12-22T08:47:29.120Z,101.25
2022-12-22T08:48:28.986Z,73.12
2022-12-22T08:49:28.938Z,67.50
2022-12-22T08:50:29.034Z,67.50
2022-12-22T08:51:29.001Z,56.25
2022-12-22T08:52:28.948Z,56.25
2022-12-22T08:54:03.289Z,61.88
2022-12-22T08:54:28.890Z,67.50
2022-12-22T08:55:29.214Z,84.38
2022-12-22T08:56:28.849Z,78.75
2022-12-22T08:57:28.861Z,56.25
2022-12-22T08:58:28.801Z,50.62
2022-12-22T08:59:29.037Z,61.88
2022-12-22T09:00:29.094Z,73.12
2022-12-22T09:01:30.679Z,90.00
2022-12-22T09:02:29.363Z,106.88
2022-12-22T09:03:29.021Z,118.12
2022-12-22T09:04:28.784Z,118.12
2022-12-22T09:05:29.132Z,118.12
2022-12-22T09:06:33.286Z,140.62
2022-12-22T09:07:28.766Z,118.12
2022-12-22T09:08:29.019Z,73.12
2022-12-22T09:09:28.673Z,61.88
2022-12-22T09:10:29.384Z,61.88
2022-12-22T09:11:28.674Z,67.50
2022-12-22T09:12:28.858Z,39.38
2022-12-22T09:13:28.637Z,61.88
2022-12-22T09:14:28.766Z,50.62
2022-12-22T09:15:28.584Z,39.38
2022-12-22T09:16:28.766Z,33.75
2022-12-22T09:17:28.664Z,22.50
2022-12-22T09:18:28.641Z,16.88
2022-12-22T09:19:28.661Z,5.62
2022-12-22T09:20:28.633Z,5.62
2022-12-22T09:21:28.617Z,5.62
2022-12-22T09:22:29.013Z,5.62
2022-12-22T09:23:28.625Z,5.62
2022-12-22T09:24:28.476Z,5.62
2022-12-22T09:25:28.654Z,5.62
2022-12-22T09:26:28.446Z,11.25
2022-12-22T09:27:28.694Z,11.25
2022-12-22T09:28:28.645Z,11.25
2022-12-22T09:29:28.419Z,5.62
2022-12-22T09:30:28.489Z,5.62
2022-12-22T09:31:28.486Z,11.25
2022-12-22T09:32:28.479Z,11.25
2022-12-22T09:33:28.325Z,11.25
2022-12-22T09:34:28.538Z,11.25
2022-12-22T09:35:28.313Z,11.25
2022-12-22T09:36:28.426Z,11.25
2022-12-22T09:37:28.432Z,11.25
2022-12-22T09:38:28.496Z,11.25
2022-12-22T09:39:29.469Z,11.25
2022-12-22T09:40:28.688Z,16.88
2022-12-22T09:41:28.256Z,16.88
2022-12-22T09:42:28.341Z,16.88
2022-12-22T09:43:28.214Z,16.88
2022-12-22T09:44:28.328Z,16.88
2022-12-22T09:45:28.187Z,11.25
2022-12-22T09:46:28.414Z,11.25
2022-12-22T09:47:28.208Z,16.88
2022-12-22T09:48:28.315Z,16.88
2022-12-22T09:49:28.291Z,16.88
2022-12-22T09:50:28.350Z,22.50
2022-12-22T09:51:28.177Z,22.50
2022-12-22T09:52:28.320Z,16.88
2022-12-22T09:53:28.068Z,16.88
2022-12-22T09:54:28.255Z,16.88
2022-12-22T09:55:28.120Z,16.88
2022-12-22T09:56:28.159Z,22.50
2022-12-22T09:57:28.038Z,28.12
2022-12-22T09:58:28.212Z,39.38
2022-12-22T09:59:28.221Z,50.62
2022-12-22T10:00:27.992Z,67.50
2022-12-22T10:01:28.389Z,101.25
2022-12-22T10:02:28.071Z,399.38
2022-12-22T10:03:28.208Z,213.75
2022-12-22T10:04:27.990Z,135.00
2022-12-22T10:05:28.157Z,191.25
2022-12-22T10:06:28.012Z,292.50
2022-12-22T10:07:28.058Z,90.00
2022-12-22T10:08:27.919Z,78.75
2022-12-22T10:09:48.612Z,56.25
2022-12-22T10:10:27.940Z,50.62
2022-12-22T10:11:28.124Z,50.62
2022-12-22T10:12:28.041Z,56.25
2022-12-22T10:13:27.816Z,50.62
2022-12-22T10:14:28.005Z,45.00
2022-12-22T10:15:28.054Z,45.00
2022-12-22T10:16:28.056Z,39.38
2022-12-22T10:17:27.842Z,39.38
2022-12-22T10:18:28.086Z,39.38
2022-12-22T10:19:27.849Z,39.38
2022-12-22T10:20:28.643Z,45.00
2022-12-22T10:21:27.769Z,45.00
2022-12-22T10:22:27.960Z,39.38
2022-12-22T10:23:27.749Z,39.38
2022-12-22T10:24:27.942Z,45.00
2022-12-22T10:25:27.658Z,56.25
2022-12-22T10:26:29.720Z,67.50
2022-12-22T10:27:29.376Z,73.12
2022-12-22T10:28:27.851Z,61.88
2022-12-22T10:29:27.618Z,56.25
2022-12-22T10:30:27.803Z,50.62
2022-12-22T10:31:27.742Z,45.00
2022-12-22T10:32:28.335Z,50.62
2022-12-22T10:33:27.788Z,50.62
2022-12-22T10:34:27.937Z,50.62
2022-12-22T10:35:27.574Z,56.25
2022-12-22T10:36:27.728Z,61.88
2022-12-22T10:37:27.587Z,56.25
2022-12-22T10:38:27.993Z,39.38
2022-12-22T10:39:27.576Z,33.75
2022-12-22T10:40:27.672Z,28.12
2022-12-22T10:41:27.508Z,33.75
2022-12-22T10:42:28.387Z,50.62
2022-12-22T10:43:27.671Z,67.50
2022-12-22T10:44:27.694Z,56.25
2022-12-22T10:45:27.485Z,39.38
2022-12-22T10:46:27.658Z,39.38
2022-12-22T10:47:27.477Z,39.38
2022-12-22T10:48:27.612Z,39.38
2022-12-22T10:49:27.470Z,45.00
2022-12-22T10:50:27.582Z,39.38
2022-12-22T10:51:27.335Z,39.38
2022-12-22T10:52:30.492Z,45.00
2022-12-22T10:53:27.382Z,45.00
2022-12-22T10:54:27.489Z,39.38
2022-12-22T10:55:27.333Z,33.75
2022-12-22T10:56:27.438Z,28.12
2022-12-22T10:57:27.238Z,28.12
2022-12-22T10:58:27.340Z,22.50
2022-12-22T10:59:27.426Z,28.12
2022-12-22T11:00:27.462Z,28.12
2022-12-22T11:01:27.286Z,28.12
2022-12-22T11:02:27.678Z,33.75
2022-12-22T11:03:27.320Z,33.75
2022-12-22T11:04:27.319Z,39.38
2022-12-22T11:05:27.204Z,33.75
2022-12-22T11:06:27.381Z,33.75
2022-12-22T11:07:27.173Z,33.75
2022-12-22T11:08:27.217Z,33.75
2022-12-22T11:09:35.490Z,33.75
2022-12-22T11:10:27.228Z,33.75
2022-12-22T11:11:27.219Z,33.75
2022-12-22T11:12:27.080Z,39.38
2022-12-22T11:13:27.141Z,56.25
2022-12-22T11:14:27.065Z,78.75
2022-12-22T11:15:27.156Z,95.62
2022-12-22T11:16:27.094Z,123.75
2022-12-22T11:17:27.211Z,135.00
2022-12-22T11:18:27.039Z,95.62
2022-12-22T11:19:27.194Z,61.88
2022-12-22T11:20:27.203Z,56.25
2022-12-22T11:21:27.086Z,61.88
2022-12-22T11:22:27.011Z,61.88
2022-12-22T11:23:27.057Z,56.25
2022-12-22T11:24:27.078Z,45.00
2022-12-22T11:25:27.043Z,39.38
2022-12-22T11:26:27.018Z,33.75
2022-12-22T11:27:26.884Z,33.75
2022-12-22T11:28:27.109Z,39.38
2022-12-22T11:29:26.880Z,45.00
2022-12-22T11:30:27.154Z,50.62
2022-12-22T11:31:27.080Z,50.62
2022-12-22T11:32:27.048Z,39.38
2022-12-22T11:33:26.896Z,33.75
2022-12-22T11:34:27.145Z,33.75
2022-12-22T11:35:27.207Z,45.00
2022-12-22T11:36:27.018Z,50.62
2022-12-22T11:37:26.780Z,50.62
2022-12-22T11:38:26.856Z,45.00
2022-12-22T11:39:26.762Z,33.75
2022-12-22T11:40:26.861Z,33.75
2022-12-22T11:41:26.673Z,33.75
2022-12-22T11:42:26.890Z,28.12
2022-12-22T11:43:26.686Z,28.12
2022-12-22T11:44:26.770Z,33.75
2022-12-22T11:45:26.750Z,39.38
2022-12-22T11:46:26.998Z,39.38
2022-12-22T11:47:26.617Z,45.00
2022-12-22T11:48:26.750Z,45.00
2022-12-22T11:49:26.618Z,45.00
2022-12-22T11:51:01.567Z,33.75
2022-12-22T11:51:27.734Z,39.38
2022-12-22T11:52:26.653Z,39.38
2022-12-22T11:53:26.786Z,39.38
2022-12-22T11:54:26.551Z,39.38
2022-12-22T11:55:26.643Z,33.75
2022-12-22T11:56:26.538Z,33.75
2022-12-22T11:57:26.666Z,33.75
2022-12-22T11:58:26.456Z,39.38
2022-12-22T11:59:26.863Z,50.62
2022-12-22T12:00:55.678Z,73.12
2022-12-22T12:01:26.586Z,95.62
2022-12-22T12:02:26.583Z,129.38
2022-12-22T12:03:26.617Z,270.00
2022-12-22T12:04:26.443Z,219.38
2022-12-22T12:05:26.503Z,129.38
2022-12-22T12:06:26.598Z,84.38
2022-12-22T12:07:26.611Z,112.50
2022-12-22T12:08:26.422Z,140.62
2022-12-22T12:09:26.339Z,669.38
2022-12-22T12:10:26.401Z,298.12
2022-12-22T12:11:26.366Z,163.12
2022-12-22T12:12:26.343Z,84.38
2022-12-22T12:13:31.551Z,73.12
2022-12-22T12:14:26.263Z,84.38
2022-12-22T12:15:26.492Z,45.00
2022-12-22T12:16:26.278Z,33.75
2022-12-22T12:17:26.465Z,39.38
2022-12-22T12:18:26.348Z,45.00
2022-12-22T12:19:28.639Z,50.62
2022-12-22T12:20:26.171Z,50.62
2022-12-22T12:21:26.386Z,50.62
2022-12-22T12:22:26.369Z,56.25
2022-12-22T12:23:26.213Z,67.50
2022-12-22T12:24:26.184Z,73.12
2022-12-22T12:25:26.368Z,78.75
2022-12-22T12:26:26.207Z,106.88
2022-12-22T12:27:26.278Z,208.12
2022-12-22T12:28:26.092Z,236.25
2022-12-22T12:29:26.453Z,146.25
2022-12-22T12:30:38.151Z,157.50
2022-12-22T12:31:26.888Z,573.75
2022-12-22T12:32:26.164Z,253.12
2022-12-22T12:33:26.108Z,646.88
2022-12-22T12:34:26.204Z,528.75
2022-12-22T12:35:26.018Z,1985.62
2022-12-22T12:36:26.074Z,1333.12
2022-12-22T12:37:26.993Z,2829.38
2022-12-22T12:39:05.745Z,3560.62
2022-12-22T12:39:26.093Z,3870.00
2022-12-22T12:40:25.903Z,528.75
2022-12-22T12:41:26.025Z,185.62
2022-12-22T12:42:25.879Z,157.50
2022-12-22T12:43:26.060Z,146.25
2022-12-22T12:44:25.924Z,129.38
2022-12-22T12:45:26.370Z,101.25
2022-12-22T12:46:25.878Z,118.12
2022-12-22T12:47:25.942Z,202.50
2022-12-22T12:48:25.920Z,410.62
2022-12-22T12:49:26.635Z,1631.25
2022-12-22T12:50:25.825Z,180.00
2022-12-22T12:51:25.977Z,191.25
2022-12-22T12:52:25.759Z,275.62
2022-12-22T12:53:25.871Z,630.00
2022-12-22T12:54:25.744Z,438.75
2022-12-22T12:55:31.652Z,106.88
2022-12-22T12:56:26.545Z,106.88
2022-12-22T12:57:26.543Z,78.75
2022-12-22T12:58:26.566Z,112.50
2022-12-22T12:59:27.204Z,90.00
2022-12-22T13:00:26.680Z,95.62
2022-12-22T13:01:26.269Z,146.25
2022-12-22T13:02:26.458Z,208.12
2022-12-22T13:04:01.087Z,1299.38
2022-12-22T13:04:27.344Z,376.88
2022-12-22T13:05:26.463Z,241.88
2022-12-22T13:06:27.322Z,253.12